sensor_id;sensor_type;location;lat;lon;timestamp;P1;durP1;ratioP1;P2;durP2;ratioP2
39190;SDS011;24916;51.676;6.614;2022-12-29T00:02:19;1.25;;;0.80;;
39190;SDS011;24916;51.676;6.614;2022-12-29T00:04:44;1.25;;;0.93;;
39190;SDS011;24916;51.676;6.614;2022-12-29T00:07:09;1.13;;;0.95;;
39190;SDS011;24916;51.676;6.614;2022-12-29T00:09:34;1.70;;;1.00;;
39190;SDS011;24916;51.676;6.614;2022-12-29T00:12:00;0.73;;;0.60;;
39190;SDS011;24916;51.676;6.614;2022-12-29T00:14:26;1.13;;;1.00;;
39190;SDS011;24916;51.676;6.614;2022-12-29T00:17:10;1.15;;;0.90;;
39190;SDS011;24916;51.676;6.614;2022-12-29T00:19:35;1.25;;;0.95;;
39190;SDS011;24916;51.676;6.614;2022-12-29T00:22:19;2.13;;;0.95;;
39190;SDS011;24916;51.676;6.614;2022-12-29T00:25:03;1.77;;;1.00;;
39190;SDS011;24916;51.676;6.614;2022-12-29T00:27:47;1.02;;;0.73;;
39190;SDS011;24916;51.676;6.614;2022-12-29T00:30:31;1.33;;;0.98;;
39190;SDS011;24916;51.676;6.614;2022-12-29T00:33:16;2.33;;;1.20;;
39190;SDS011;24916;51.676;6.614;2022-12-29T00:36:02;1.63;;;1.10;;
39190;SDS011;24916;51.676;6.614;2022-12-29T00:38:29;1.70;;;0.95;;
39190;SDS011;24916;51.676;6.614;2022-12-29T00:41:14;1.50;;;1.15;;
39190;SDS011;24916;51.676;6.614;2022-12-29T00:43:58;1.20;;;1.10;;
39190;SDS011;24916;51.676;6.614;2022-12-29T00:48:57;1.30;;;1.10;;
39190;SDS011;24916;51.676;6.614;2022-12-29T00:51:41;0.98;;;0.93;;
39190;SDS011;24916;51.676;6.614;2022-12-29T00:54:06;1.13;;;0.77;;
39190;SDS011;24916;51.676;6.614;2022-12-29T00:56:32;1.42;;;1.10;;
39190;SDS011;24916;51.676;6.614;2022-12-29T00:59:04;2.92;;;0.88;;
39190;SDS011;24916;51.676;6.614;2022-12-29T01:01:29;3.05;;;0.93;;
39190;SDS011;24916;51.676;6.614;2022-12-29T01:03:55;3.58;;;1.10;;
39190;SDS011;24916;51.676;6.614;2022-12-29T01:06:20;2.33;;;0.95;;
39190;SDS011;24916;51.676;6.614;2022-12-29T01:08:45;2.33;;;0.98;;
39190;SDS011;24916;51.676;6.614;2022-12-29T01:11:11;2.97;;;0.98;;
39190;SDS011;24916;51.676;6.614;2022-12-29T01:13:36;3.28;;;1.13;;
39190;SDS011;24916;51.676;6.614;2022-12-29T01:16:03;1.73;;;0.80;;
39190;SDS011;24916;51.676;6.614;2022-12-29T01:18:28;2.25;;;0.73;;
39190;SDS011;24916;51.676;6.614;2022-12-29T01:32:09;0.60;;;0.60;;
39190;SDS011;24916;51.676;6.614;2022-12-29T01:34:35;0.88;;;0.60;;
39190;SDS011;24916;51.676;6.614;2022-12-29T01:37:00;1.40;;;0.77;;
39190;SDS011;24916;51.676;6.614;2022-12-29T01:39:25;1.02;;;0.70;;
39190;SDS011;24916;51.676;6.614;2022-12-29T01:41:50;1.23;;;0.73;;
39190;SDS011;24916;51.676;6.614;2022-12-29T01:46:59;1.92;;;0.90;;
39190;SDS011;24916;51.676;6.614;2022-12-29T01:49:26;1.98;;;1.00;;
39190;SDS011;24916;51.676;6.614;2022-12-29T01:51:53;1.35;;;0.73;;
39190;SDS011;24916;51.676;6.614;2022-12-29T01:54:37;0.60;;;0.60;;
39190;SDS011;24916;51.676;6.614;2022-12-29T01:57:05;1.88;;;0.68;;
39190;SDS011;24916;51.676;6.614;2022-12-29T01:59:33;1.10;;;0.70;;
39190;SDS011;24916;51.676;6.614;2022-12-29T02:01:59;1.92;;;0.70;;
39190;SDS011;24916;51.676;6.614;2022-12-29T02:04:25;1.67;;;0.75;;
39190;SDS011;24916;51.676;6.614;2022-12-29T02:06:53;0.57;;;0.50;;
39190;SDS011;24916;51.676;6.614;2022-12-29T02:09:19;1.38;;;0.57;;
39190;SDS011;24916;51.676;6.614;2022-12-29T02:11:44;4.10;;;0.80;;
39190;SDS011;24916;51.676;6.614;2022-12-29T02:14:11;1.65;;;0.70;;
39190;SDS011;24916;51.676;6.614;2022-12-29T02:22:41;2.97;;;0.73;;
39190;SDS011;24916;51.676;6.614;2022-12-29T02:35:47;1.27;;;0.45;;
39190;SDS011;24916;51.676;6.614;2022-12-29T02:38:26;1.60;;;0.60;;
39190;SDS011;24916;51.676;6.614;2022-12-29T02:43:36;2.67;;;0.63;;
39190;SDS011;24916;51.676;6.614;2022-12-29T02:51:43;3.47;;;0.63;;
39190;SDS011;24916;51.676;6.614;2022-12-29T02:54:09;2.35;;;0.70;;
39190;SDS011;24916;51.676;6.614;2022-12-29T02:56:53;1.90;;;0.80;;
39190;SDS011;24916;51.676;6.614;2022-12-29T02:59:18;2.45;;;0.63;;
39190;SDS011;24916;51.676;6.614;2022-12-29T03:01:50;3.85;;;0.98;;
39190;SDS011;24916;51.676;6.614;2022-12-29T03:09:57;2.97;;;1.13;;
39190;SDS011;24916;51.676;6.614;2022-12-29T03:15:21;2.45;;;0.70;;
39190;SDS011;24916;51.676;6.614;2022-12-29T03:18:06;4.82;;;0.85;;
39190;SDS011;24916;51.676;6.614;2022-12-29T03:25:39;4.20;;;0.95;;
39190;SDS011;24916;51.676;6.614;2022-12-29T03:28:07;1.67;;;0.90;;
39190;SDS011;24916;51.676;6.614;2022-12-29T03:30:32;2.88;;;0.65;;
39190;SDS011;24916;51.676;6.614;2022-12-29T03:32:59;1.33;;;0.60;;
39190;SDS011;24916;51.676;6.614;2022-12-29T03:35:28;3.35;;;0.80;;
39190;SDS011;24916;51.676;6.614;2022-12-29T03:40:31;2.05;;;0.60;;
39190;SDS011;24916;51.676;6.614;2022-12-29T03:42:59;0.75;;;0.50;;
39190;SDS011;24916;51.676;6.614;2022-12-29T03:45:24;4.00;;;0.80;;
39190;SDS011;24916;51.676;6.614;2022-12-29T03:47:50;3.08;;;0.77;;
39190;SDS011;24916;51.676;6.614;2022-12-29T03:50:15;3.50;;;1.23;;
39190;SDS011;24916;51.676;6.614;2022-12-29T03:52:41;4.43;;;0.70;;
39190;SDS011;24916;51.676;6.614;2022-12-29T03:55:06;2.50;;;0.52;;
39190;SDS011;24916;51.676;6.614;2022-12-29T03:57:31;6.10;;;0.82;;
39190;SDS011;24916;51.676;6.614;2022-12-29T03:59:56;1.50;;;0.40;;
39190;SDS011;24916;51.676;6.614;2022-12-29T04:02:22;1.88;;;0.47;;
39190;SDS011;24916;51.676;6.614;2022-12-29T04:04:47;1.75;;;0.28;;
39190;SDS011;24916;51.676;6.614;2022-12-29T04:07:12;1.50;;;0.50;;
39190;SDS011;24916;51.676;6.614;2022-12-29T04:09:37;2.40;;;0.28;;
39190;SDS011;24916;51.676;6.614;2022-12-29T04:12:03;2.63;;;0.40;;
39190;SDS011;24916;51.676;6.614;2022-12-29T04:14:28;1.40;;;0.45;;
39190;SDS011;24916;51.676;6.614;2022-12-29T04:16:53;2.20;;;0.20;;
39190;SDS011;24916;51.676;6.614;2022-12-29T04:19:18;2.65;;;0.30;;
39190;SDS011;24916;51.676;6.614;2022-12-29T04:21:44;2.58;;;0.50;;
39190;SDS011;24916;51.676;6.614;2022-12-29T04:24:09;5.03;;;0.47;;
39190;SDS011;24916;51.676;6.614;2022-12-29T04:26:34;0.50;;;0.08;;
39190;SDS011;24916;51.676;6.614;2022-12-29T04:28:59;3.67;;;0.40;;
39190;SDS011;24916;51.676;6.614;2022-12-29T04:31:25;1.67;;;0.38;;
39190;SDS011;24916;51.676;6.614;2022-12-29T04:33:50;5.40;;;0.57;;
39190;SDS011;24916;51.676;6.614;2022-12-29T04:36:15;2.20;;;0.30;;
39190;SDS011;24916;51.676;6.614;2022-12-29T04:38:40;1.92;;;0.28;;
39190;SDS011;24916;51.676;6.614;2022-12-29T04:41:05;0.40;;;0.10;;
39190;SDS011;24916;51.676;6.614;2022-12-29T04:43:31;1.13;;;0.10;;
39190;SDS011;24916;51.676;6.614;2022-12-29T04:45:56;3.45;;;0.40;;
39190;SDS011;24916;51.676;6.614;2022-12-29T04:48:21;0.40;;;0.20;;
39190;SDS011;24916;51.676;6.614;2022-12-29T04:50:47;2.47;;;0.30;;
39190;SDS011;24916;51.676;6.614;2022-12-29T04:53:13;4.95;;;0.25;;
39190;SDS011;24916;51.676;6.614;2022-12-29T04:55:38;2.17;;;0.45;;
39190;SDS011;24916;51.676;6.614;2022-12-29T04:58:03;2.70;;;0.30;;
39190;SDS011;24916;51.676;6.614;2022-12-29T05:00:29;2.78;;;0.38;;
39190;SDS011;24916;51.676;6.614;2022-12-29T05:02:54;1.35;;;0.40;;
39190;SDS011;24916;51.676;6.614;2022-12-29T05:13:25;3.30;;;0.60;;
39190;SDS011;24916;51.676;6.614;2022-12-29T05:15:50;2.35;;;0.65;;
39190;SDS011;24916;51.676;6.614;2022-12-29T05:18:16;5.07;;;0.80;;
39190;SDS011;24916;51.676;6.614;2022-12-29T05:20:41;3.78;;;0.57;;
39190;SDS011;24916;51.676;6.614;2022-12-29T05:23:07;6.55;;;0.52;;
39190;SDS011;24916;51.676;6.614;2022-12-29T05:25:32;5.05;;;0.52;;
39190;SDS011;24916;51.676;6.614;2022-12-29T05:27:57;3.13;;;0.50;;
39190;SDS011;24916;51.676;6.614;2022-12-29T05:30:23;6.35;;;0.80;;
39190;SDS011;24916;51.676;6.614;2022-12-29T05:32:48;4.65;;;0.57;;
39190;SDS011;24916;51.676;6.614;2022-12-29T05:35:13;3.95;;;0.82;;
39190;SDS011;24916;51.676;6.614;2022-12-29T05:37:38;5.03;;;0.60;;
39190;SDS011;24916;51.676;6.614;2022-12-29T05:40:04;5.78;;;1.65;;
39190;SDS011;24916;51.676;6.614;2022-12-29T05:42:29;7.38;;;0.85;;
39190;SDS011;24916;51.676;6.614;2022-12-29T05:44:54;3.00;;;0.45;;
39190;SDS011;24916;51.676;6.614;2022-12-29T05:47:20;2.35;;;0.63;;
39190;SDS011;24916;51.676;6.614;2022-12-29T05:49:45;3.90;;;0.50;;
39190;SDS011;24916;51.676;6.614;2022-12-29T05:52:10;0.77;;;0.20;;
39190;SDS011;24916;51.676;6.614;2022-12-29T05:54:35;1.27;;;0.50;;
39190;SDS011;24916;51.676;6.614;2022-12-29T05:57:01;2.85;;;0.47;;
39190;SDS011;24916;51.676;6.614;2022-12-29T05:59:26;3.70;;;0.60;;
39190;SDS011;24916;51.676;6.614;2022-12-29T06:01:51;1.92;;;0.55;;
39190;SDS011;24916;51.676;6.614;2022-12-29T06:04:16;3.38;;;0.70;;
